To NAV CANADA Home Page Login to a new session Search on AWWS site Feedback and Comments Disclaimer Vers la page française équivalente Tips FAQ What's new on the site To the Forecasts and Observations / NOTAM section To "File a Flight Plan" website Publications and other links Update of the User's profile FIC Telephone Numbers My Weather Data Folder Route Weather Data Regional Weather Data Local Weather Data To the Forecasts and Observations / NOTAM section
Request Generated 07/23/2016 at 23:04:24 UTC . Weather information available at that time is displayed.

METAR/TAF

THOMPSON/MB    

METAR CYTH 232300Z 13003KT 080V190 10SM -DZ BKN016 OVC025 19/18 A2974
RMK SC6SC2 SLP079 DENSITY ALT 1500FT=
METAR CYTH 232200Z VRB02KT 15SM FEW020 SCT050 BKN075 OVC100 18/17
A2975 RMK SC1SC2AC3AC2 SLP082 DENSITY ALT 1400FT=
SPECI CYTH 232138Z 21003KT 160V230 15SM FEW020 SCT050 OVC075 18/17
A2975 RMK SC2SC2AC4 SLP084 DENSITY ALT 1400FT=
METAR CYTH 232100Z VRB02KT 10SM -RA FEW020 BKN050 OVC075 18/17 A2975
RMK SC2SC3AC3 SLP082 DENSITY ALT 1400FT=

TAF AMD CYTH 232024Z 2320/2407 20010KT P6SM SCT020 OVC120 TEMPO
2320/2324 4SM -SHRA BR BKN020 OVC090
FM240000 02008KT P6SM -SHRA SCT008 OVC030 TEMPO 2400/2407 4SM
-SHRA BR OVC008 PROB30 2400/2407 VRB15G25KT 3SM TSRA BKN020CB
RMK NXT FCST BY 240100Z=
Your time UTC time
Weather data provided by Environment Canada and NAV CANADA